sensor_id;sensor_type;location;lat;lon;timestamp;P1;durP1;ratioP1;P2;durP2;ratioP2
29210;SDS011;16250;49.932;10.980;2023-09-12T00:02:00;13.15;;;8.00;;
29210;SDS011;16250;49.932;10.980;2023-09-12T00:04:25;14.63;;;8.63;;
29210;SDS011;16250;49.932;10.980;2023-09-12T00:06:51;11.95;;;8.23;;
29210;SDS011;16250;49.932;10.980;2023-09-12T00:09:16;11.25;;;7.78;;
29210;SDS011;16250;49.932;10.980;2023-09-12T00:11:42;10.55;;;8.05;;
29210;SDS011;16250;49.932;10.980;2023-09-12T00:14:08;14.30;;;8.48;;
29210;SDS011;16250;49.932;10.980;2023-09-12T00:16:34;13.50;;;7.93;;
29210;SDS011;16250;49.932;10.980;2023-09-12T00:19:00;13.70;;;8.15;;
29210;SDS011;16250;49.932;10.980;2023-09-12T00:21:25;13.65;;;8.07;;
29210;SDS011;16250;49.932;10.980;2023-09-12T00:23:50;12.55;;;7.85;;
29210;SDS011;16250;49.932;10.980;2023-09-12T00:26:16;13.40;;;7.70;;
29210;SDS011;16250;49.932;10.980;2023-09-12T00:28:43;14.25;;;7.85;;
29210;SDS011;16250;49.932;10.980;2023-09-12T00:31:08;14.45;;;7.55;;
29210;SDS011;16250;49.932;10.980;2023-09-12T00:33:33;12.90;;;8.32;;
29210;SDS011;16250;49.932;10.980;2023-09-12T00:35:59;13.77;;;8.10;;
29210;SDS011;16250;49.932;10.980;2023-09-12T00:38:24;12.88;;;9.00;;
29210;SDS011;16250;49.932;10.980;2023-09-12T00:40:50;13.98;;;8.23;;
29210;SDS011;16250;49.932;10.980;2023-09-12T00:43:15;11.15;;;7.80;;
29210;SDS011;16250;49.932;10.980;2023-09-12T00:45:41;12.93;;;7.55;;
29210;SDS011;16250;49.932;10.980;2023-09-12T00:48:08;13.40;;;8.38;;
29210;SDS011;16250;49.932;10.980;2023-09-12T00:50:34;14.13;;;7.80;;
29210;SDS011;16250;49.932;10.980;2023-09-12T00:53:00;16.73;;;8.20;;
29210;SDS011;16250;49.932;10.980;2023-09-12T00:55:26;15.10;;;8.75;;
29210;SDS011;16250;49.932;10.980;2023-09-12T00:57:51;19.30;;;9.63;;
29210;SDS011;16250;49.932;10.980;2023-09-12T01:00:18;15.63;;;8.93;;
29210;SDS011;16250;49.932;10.980;2023-09-12T01:02:43;17.52;;;8.77;;
29210;SDS011;16250;49.932;10.980;2023-09-12T01:05:10;13.43;;;8.23;;
29210;SDS011;16250;49.932;10.980;2023-09-12T01:07:37;14.05;;;8.35;;
29210;SDS011;16250;49.932;10.980;2023-09-12T01:10:03;18.90;;;8.43;;
29210;SDS011;16250;49.932;10.980;2023-09-12T01:12:32;10.27;;;8.70;;
29210;SDS011;16250;49.932;10.980;2023-09-12T01:14:58;11.40;;;8.93;;
29210;SDS011;16250;49.932;10.980;2023-09-12T01:17:23;15.80;;;9.02;;
29210;SDS011;16250;49.932;10.980;2023-09-12T01:19:49;14.00;;;8.75;;
29210;SDS011;16250;49.932;10.980;2023-09-12T01:25:24;14.70;;;8.95;;
29210;SDS011;16250;49.932;10.980;2023-09-12T01:28:02;14.10;;;8.57;;
29210;SDS011;16250;49.932;10.980;2023-09-12T01:30:28;16.42;;;8.20;;
29210;SDS011;16250;49.932;10.980;2023-09-12T01:32:57;13.90;;;7.88;;
29210;SDS011;16250;49.932;10.980;2023-09-12T01:35:22;16.70;;;8.70;;
29210;SDS011;16250;49.932;10.980;2023-09-12T01:37:48;13.27;;;10.02;;
29210;SDS011;16250;49.932;10.980;2023-09-12T01:40:14;16.02;;;10.93;;
29210;SDS011;16250;49.932;10.980;2023-09-12T01:42:42;16.10;;;10.80;;
29210;SDS011;16250;49.932;10.980;2023-09-12T01:45:09;18.83;;;10.63;;
29210;SDS011;16250;49.932;10.980;2023-09-12T01:47:35;15.30;;;9.30;;
29210;SDS011;16250;49.932;10.980;2023-09-12T01:50:02;18.10;;;9.43;;
29210;SDS011;16250;49.932;10.980;2023-09-12T01:52:28;13.15;;;9.18;;
29210;SDS011;16250;49.932;10.980;2023-09-12T01:54:54;12.15;;;8.90;;
29210;SDS011;16250;49.932;10.980;2023-09-12T01:57:19;16.20;;;8.98;;
29210;SDS011;16250;49.932;10.980;2023-09-12T01:59:49;15.38;;;8.95;;
29210;SDS011;16250;49.932;10.980;2023-09-12T02:02:15;11.48;;;7.85;;
29210;SDS011;16250;49.932;10.980;2023-09-12T02:04:41;16.10;;;8.52;;
29210;SDS011;16250;49.932;10.980;2023-09-12T02:07:07;14.15;;;7.80;;
29210;SDS011;16250;49.932;10.980;2023-09-12T02:09:32;14.63;;;8.10;;
29210;SDS011;16250;49.932;10.980;2023-09-12T02:11:57;18.77;;;8.15;;
29210;SDS011;16250;49.932;10.980;2023-09-12T02:14:23;14.18;;;7.82;;
29210;SDS011;16250;49.932;10.980;2023-09-12T02:16:48;13.73;;;7.82;;
29210;SDS011;16250;49.932;10.980;2023-09-12T02:19:14;14.45;;;7.63;;
29210;SDS011;16250;49.932;10.980;2023-09-12T02:21:39;12.63;;;7.75;;
29210;SDS011;16250;49.932;10.980;2023-09-12T02:24:05;14.25;;;8.57;;
29210;SDS011;16250;49.932;10.980;2023-09-12T02:26:30;15.48;;;8.40;;
29210;SDS011;16250;49.932;10.980;2023-09-12T02:29:01;13.23;;;8.05;;
29210;SDS011;16250;49.932;10.980;2023-09-12T02:31:27;11.15;;;8.20;;
29210;SDS011;16250;49.932;10.980;2023-09-12T02:33:53;12.85;;;8.80;;
29210;SDS011;16250;49.932;10.980;2023-09-12T02:36:19;13.77;;;9.50;;
29210;SDS011;16250;49.932;10.980;2023-09-12T02:38:45;14.57;;;9.57;;
29210;SDS011;16250;49.932;10.980;2023-09-12T02:41:10;17.33;;;8.40;;
29210;SDS011;16250;49.932;10.980;2023-09-12T02:43:36;12.05;;;9.00;;
29210;SDS011;16250;49.932;10.980;2023-09-12T02:46:01;13.77;;;9.35;;
29210;SDS011;16250;49.932;10.980;2023-09-12T02:48:27;13.95;;;8.43;;
29210;SDS011;16250;49.932;10.980;2023-09-12T02:50:52;13.15;;;8.63;;
29210;SDS011;16250;49.932;10.980;2023-09-12T02:53:18;12.80;;;8.50;;
29210;SDS011;16250;49.932;10.980;2023-09-12T02:55:43;13.93;;;8.55;;
29210;SDS011;16250;49.932;10.980;2023-09-12T02:58:08;13.20;;;8.43;;
29210;SDS011;16250;49.932;10.980;2023-09-12T03:00:38;12.52;;;8.93;;
29210;SDS011;16250;49.932;10.980;2023-09-12T03:03:05;15.70;;;8.30;;
29210;SDS011;16250;49.932;10.980;2023-09-12T03:05:31;13.00;;;9.18;;
29210;SDS011;16250;49.932;10.980;2023-09-12T03:07:56;16.63;;;10.02;;
29210;SDS011;16250;49.932;10.980;2023-09-12T03:10:22;16.98;;;10.40;;
29210;SDS011;16250;49.932;10.980;2023-09-12T03:12:47;15.40;;;9.30;;
29210;SDS011;16250;49.932;10.980;2023-09-12T03:15:12;11.40;;;8.20;;
29210;SDS011;16250;49.932;10.980;2023-09-12T03:17:38;13.45;;;9.18;;
29210;SDS011;16250;49.932;10.980;2023-09-12T03:20:04;12.13;;;8.82;;
29210;SDS011;16250;49.932;10.980;2023-09-12T03:22:33;11.30;;;8.13;;
29210;SDS011;16250;49.932;10.980;2023-09-12T03:25:03;13.50;;;8.50;;
29210;SDS011;16250;49.932;10.980;2023-09-12T03:27:29;12.13;;;8.68;;
29210;SDS011;16250;49.932;10.980;2023-09-12T03:29:54;11.63;;;8.15;;
29210;SDS011;16250;49.932;10.980;2023-09-12T03:32:20;15.18;;;9.65;;
29210;SDS011;16250;49.932;10.980;2023-09-12T03:34:45;16.15;;;9.60;;
29210;SDS011;16250;49.932;10.980;2023-09-12T03:37:11;15.45;;;10.18;;
29210;SDS011;16250;49.932;10.980;2023-09-12T03:39:36;14.68;;;10.48;;
29210;SDS011;16250;49.932;10.980;2023-09-12T03:42:04;16.08;;;10.95;;
29210;SDS011;16250;49.932;10.980;2023-09-12T03:44:33;14.52;;;10.35;;
29210;SDS011;16250;49.932;10.980;2023-09-12T03:46:59;16.42;;;10.95;;
29210;SDS011;16250;49.932;10.980;2023-09-12T03:49:25;15.73;;;10.82;;
29210;SDS011;16250;49.932;10.980;2023-09-12T03:51:50;16.65;;;10.90;;
29210;SDS011;16250;49.932;10.980;2023-09-12T03:54:16;11.18;;;9.43;;
29210;SDS011;16250;49.932;10.980;2023-09-12T03:56:41;12.23;;;9.43;;
29210;SDS011;16250;49.932;10.980;2023-09-12T03:59:07;12.63;;;9.55;;
29210;SDS011;16250;49.932;10.980;2023-09-12T04:01:32;13.93;;;9.50;;
29210;SDS011;16250;49.932;10.980;2023-09-12T04:03:58;12.23;;;9.27;;
29210;SDS011;16250;49.932;10.980;2023-09-12T04:06:24;14.88;;;9.45;;
29210;SDS011;16250;49.932;10.980;2023-09-12T04:08:49;13.18;;;9.07;;
29210;SDS011;16250;49.932;10.980;2023-09-12T04:11:14;12.25;;;9.15;;
29210;SDS011;16250;49.932;10.980;2023-09-12T04:13:40;12.65;;;9.63;;
29210;SDS011;16250;49.932;10.980;2023-09-12T04:16:05;14.68;;;9.45;;
29210;SDS011;16250;49.932;10.980;2023-09-12T04:18:31;13.68;;;8.82;;
29210;SDS011;16250;49.932;10.980;2023-09-12T04:20:56;13.93;;;9.10;;
29210;SDS011;16250;49.932;10.980;2023-09-12T04:23:24;13.07;;;8.65;;
29210;SDS011;16250;49.932;10.980;2023-09-12T04:25:50;17.85;;;9.13;;
29210;SDS011;16250;49.932;10.980;2023-09-12T04:28:15;14.40;;;8.85;;
29210;SDS011;16250;49.932;10.980;2023-09-12T04:30:41;13.75;;;8.80;;
29210;SDS011;16250;49.932;10.980;2023-09-12T04:33:06;11.32;;;9.00;;
29210;SDS011;16250;49.932;10.980;2023-09-12T04:35:35;13.57;;;8.63;;
29210;SDS011;16250;49.932;10.980;2023-09-12T04:38:01;17.25;;;9.20;;
29210;SDS011;16250;49.932;10.980;2023-09-12T04:40:27;11.65;;;8.80;;
29210;SDS011;16250;49.932;10.980;2023-09-12T04:42:53;15.80;;;9.05;;
29210;SDS011;16250;49.932;10.980;2023-09-12T04:45:18;16.75;;;9.68;;
29210;SDS011;16250;49.932;10.980;2023-09-12T04:47:44;15.43;;;10.23;;
29210;SDS011;16250;49.932;10.980;2023-09-12T04:50:09;17.08;;;10.65;;
29210;SDS011;16250;49.932;10.980;2023-09-12T04:52:37;13.82;;;11.55;;
29210;SDS011;16250;49.932;10.980;2023-09-12T04:55:03;15.73;;;11.07;;
29210;SDS011;16250;49.932;10.980;2023-09-12T04:57:29;18.50;;;12.48;;
29210;SDS011;16250;49.932;10.980;2023-09-12T04:59:56;18.75;;;12.15;;
29210;SDS011;16250;49.932;10.980;2023-09-12T05:02:22;17.48;;;11.65;;
29210;SDS011;16250;49.932;10.980;2023-09-12T05:04:47;17.63;;;11.80;;
29210;SDS011;16250;49.932;10.980;2023-09-12T05:07:13;17.63;;;12.63;;
29210;SDS011;16250;49.932;10.980;2023-09-12T05:09:42;17.00;;;12.40;;
29210;SDS011;16250;49.932;10.980;2023-09-12T05:12:07;17.30;;;11.40;;
29210;SDS011;16250;49.932;10.980;2023-09-12T05:14:33;13.85;;;9.98;;
29210;SDS011;16250;49.932;10.980;2023-09-12T05:16:58;14.07;;;10.45;;
29210;SDS011;16250;49.932;10.980;2023-09-12T05:19:24;13.68;;;9.68;;
29210;SDS011;16250;49.932;10.980;2023-09-12T05:21:51;15.05;;;10.13;;
29210;SDS011;16250;49.932;10.980;2023-09-12T05:24:16;15.82;;;10.40;;
29210;SDS011;16250;49.932;10.980;2023-09-12T05:26:41;12.50;;;9.50;;
29210;SDS011;16250;49.932;10.980;2023-09-12T05:29:07;15.05;;;10.20;;
29210;SDS011;16250;49.932;10.980;2023-09-12T05:31:32;15.13;;;10.23;;
29210;SDS011;16250;49.932;10.980;2023-09-12T05:33:58;15.40;;;10.68;;
29210;SDS011;16250;49.932;10.980;2023-09-12T05:36:24;15.02;;;10.20;;
29210;SDS011;16250;49.932;10.980;2023-09-12T05:38:49;15.80;;;9.98;;
29210;SDS011;16250;49.932;10.980;2023-09-12T05:41:15;14.95;;;9.93;;
29210;SDS011;16250;49.932;10.980;2023-09-12T05:43:40;16.40;;;9.50;;
29210;SDS011;16250;49.932;10.980;2023-09-12T05:46:06;16.73;;;9.80;;
29210;SDS011;16250;49.932;10.980;2023-09-12T05:48:31;13.98;;;10.02;;
29210;SDS011;16250;49.932;10.980;2023-09-12T05:50:57;14.45;;;10.02;;
29210;SDS011;16250;49.932;10.980;2023-09-12T05:53:23;17.10;;;10.52;;
29210;SDS011;16250;49.932;10.980;2023-09-12T05:55:48;13.57;;;10.02;;
29210;SDS011;16250;49.932;10.980;2023-09-12T05:58:14;16.40;;;10.52;;
29210;SDS011;16250;49.932;10.980;2023-09-12T06:00:39;14.88;;;10.60;;
29210;SDS011;16250;49.932;10.980;2023-09-12T06:03:04;13.18;;;9.85;;
29210;SDS011;16250;49.932;10.980;2023-09-12T06:05:30;16.38;;;10.43;;
29210;SDS011;16250;49.932;10.980;2023-09-12T06:07:55;12.48;;;10.13;;
29210;SDS011;16250;49.932;10.980;2023-09-12T06:10:21;18.75;;;11.52;;
29210;SDS011;16250;49.932;10.980;2023-09-12T06:12:46;14.02;;;10.88;;
29210;SDS011;16250;49.932;10.980;2023-09-12T06:15:11;18.60;;;12.82;;
29210;SDS011;16250;49.932;10.980;2023-09-12T06:17:37;18.58;;;12.25;;
29210;SDS011;16250;49.932;10.980;2023-09-12T06:20:02;15.55;;;11.85;;
29210;SDS011;16250;49.932;10.980;2023-09-12T06:22:31;15.15;;;12.10;;
29210;SDS011;16250;49.932;10.980;2023-09-12T06:24:56;14.60;;;12.23;;
29210;SDS011;16250;49.932;10.980;2023-09-12T06:27:22;18.67;;;12.18;;
29210;SDS011;16250;49.932;10.980;2023-09-12T06:29:47;20.20;;;11.85;;
29210;SDS011;16250;49.932;10.980;2023-09-12T06:32:14;14.82;;;11.95;;
29210;SDS011;16250;49.932;10.980;2023-09-12T06:34:40;15.63;;;11.70;;
29210;SDS011;16250;49.932;10.980;2023-09-12T06:37:06;20.23;;;12.48;;
29210;SDS011;16250;49.932;10.980;2023-09-12T06:39:31;19.77;;;13.07;;
29210;SDS011;16250;49.932;10.980;2023-09-12T06:41:57;20.50;;;13.13;;
29210;SDS011;16250;49.932;10.980;2023-09-12T06:44:22;18.17;;;13.15;;
29210;SDS011;16250;49.932;10.980;2023-09-12T06:46:47;20.45;;;13.48;;
29210;SDS011;16250;49.932;10.980;2023-09-12T06:49:13;16.65;;;12.70;;
29210;SDS011;16250;49.932;10.980;2023-09-12T06:51:38;15.30;;;10.73;;
29210;SDS011;16250;49.932;10.980;2023-09-12T06:54:03;16.67;;;10.27;;
29210;SDS011;16250;49.932;10.980;2023-09-12T06:56:29;17.27;;;10.82;;
29210;SDS011;16250;49.932;10.980;2023-09-12T06:58:54;17.75;;;11.23;;
29210;SDS011;16250;49.932;10.980;2023-09-12T07:01:20;13.70;;;10.70;;
29210;SDS011;16250;49.932;10.980;2023-09-12T07:03:45;15.38;;;10.75;;
29210;SDS011;16250;49.932;10.980;2023-09-12T07:06:11;12.48;;;10.77;;
29210;SDS011;16250;49.932;10.980;2023-09-12T07:08:37;16.63;;;11.43;;
29210;SDS011;16250;49.932;10.980;2023-09-12T07:11:03;15.93;;;10.77;;
29210;SDS011;16250;49.932;10.980;2023-09-12T07:13:31;16.15;;;11.85;;
29210;SDS011;16250;49.932;10.980;2023-09-12T07:15:57;17.33;;;11.80;;
29210;SDS011;16250;49.932;10.980;2023-09-12T07:18:22;18.60;;;11.77;;
29210;SDS011;16250;49.932;10.980;2023-09-12T07:20:56;15.20;;;11.02;;
29210;SDS011;16250;49.932;10.980;2023-09-12T07:23:24;14.60;;;11.35;;
29210;SDS011;16250;49.932;10.980;2023-09-12T07:25:50;15.55;;;11.25;;
29210;SDS011;16250;49.932;10.980;2023-09-12T07:28:15;18.13;;;10.95;;
29210;SDS011;16250;49.932;10.980;2023-09-12T07:30:41;15.63;;;10.77;;
29210;SDS011;16250;49.932;10.980;2023-09-12T07:33:06;20.25;;;10.20;;
29210;SDS011;16250;49.932;10.980;2023-09-12T07:35:32;14.13;;;10.30;;
29210;SDS011;16250;49.932;10.980;2023-09-12T07:37:57;14.27;;;9.60;;
29210;SDS011;16250;49.932;10.980;2023-09-12T07:40:22;14.13;;;10.00;;
29210;SDS011;16250;49.932;10.980;2023-09-12T07:42:48;15.30;;;9.98;;
29210;SDS011;16250;49.932;10.980;2023-09-12T07:45:13;12.25;;;9.82;;
29210;SDS011;16250;49.932;10.980;2023-09-12T07:47:39;16.10;;;9.60;;
29210;SDS011;16250;49.932;10.980;2023-09-12T07:50:04;13.63;;;10.10;;
29210;SDS011;16250;49.932;10.980;2023-09-12T07:52:31;14.63;;;9.77;;
29210;SDS011;16250;49.932;10.980;2023-09-12T07:55:00;14.80;;;9.35;;
29210;SDS011;16250;49.932;10.980;2023-09-12T07:57:29;16.85;;;9.63;;
29210;SDS011;16250;49.932;10.980;2023-09-12T07:59:55;14.32;;;8.98;;
29210;SDS011;16250;49.932;10.980;2023-09-12T08:02:21;10.70;;;8.48;;
29210;SDS011;16250;49.932;10.980;2023-09-12T08:04:47;12.45;;;9.10;;
29210;SDS011;16250;49.932;10.980;2023-09-12T08:07:13;13.82;;;9.60;;
29210;SDS011;16250;49.932;10.980;2023-09-12T08:09:52;14.98;;;9.50;;
29210;SDS011;16250;49.932;10.980;2023-09-12T08:12:19;14.90;;;9.20;;
29210;SDS011;16250;49.932;10.980;2023-09-12T08:14:45;13.32;;;10.13;;
29210;SDS011;16250;49.932;10.980;2023-09-12T08:17:10;13.02;;;8.57;;
29210;SDS011;16250;49.932;10.980;2023-09-12T08:19:37;12.80;;;9.05;;
29210;SDS011;16250;49.932;10.980;2023-09-12T08:22:02;13.07;;;8.23;;
29210;SDS011;16250;49.932;10.980;2023-09-12T08:24:27;15.05;;;8.68;;
29210;SDS011;16250;49.932;10.980;2023-09-12T08:26:53;12.65;;;8.32;;
29210;SDS011;16250;49.932;10.980;2023-09-12T08:29:19;14.30;;;8.73;;
29210;SDS011;16250;49.932;10.980;2023-09-12T08:31:45;12.43;;;8.68;;
29210;SDS011;16250;49.932;10.980;2023-09-12T08:34:12;14.52;;;8.93;;
29210;SDS011;16250;49.932;10.980;2023-09-12T08:36:37;12.02;;;8.98;;
29210;SDS011;16250;49.932;10.980;2023-09-12T08:39:03;15.02;;;9.43;;
29210;SDS011;16250;49.932;10.980;2023-09-12T08:41:29;12.88;;;9.32;;
29210;SDS011;16250;49.932;10.980;2023-09-12T08:43:54;13.75;;;9.35;;
29210;SDS011;16250;49.932;10.980;2023-09-12T08:46:21;15.20;;;8.88;;
29210;SDS011;16250;49.932;10.980;2023-09-12T08:48:47;11.90;;;9.18;;
29210;SDS011;16250;49.932;10.980;2023-09-12T08:51:14;12.48;;;8.75;;
29210;SDS011;16250;49.932;10.980;2023-09-12T08:53:40;12.40;;;8.98;;
29210;SDS011;16250;49.932;10.980;2023-09-12T08:56:05;14.38;;;8.98;;
29210;SDS011;16250;49.932;10.980;2023-09-12T08:58:32;13.15;;;9.52;;
29210;SDS011;16250;49.932;10.980;2023-09-12T09:00:57;12.55;;;9.18;;
29210;SDS011;16250;49.932;10.980;2023-09-12T09:03:23;19.88;;;10.55;;
29210;SDS011;16250;49.932;10.980;2023-09-12T09:05:49;18.50;;;10.35;;
29210;SDS011;16250;49.932;10.980;2023-09-12T09:08:16;17.92;;;9.82;;
29210;SDS011;16250;49.932;10.980;2023-09-12T09:10:54;12.68;;;9.50;;
29210;SDS011;16250;49.932;10.980;2023-09-12T09:13:23;14.30;;;9.35;;
29210;SDS011;16250;49.932;10.980;2023-09-12T09:15:49;14.07;;;9.95;;
29210;SDS011;16250;49.932;10.980;2023-09-12T09:18:14;14.45;;;9.27;;
29210;SDS011;16250;49.932;10.980;2023-09-12T09:20:40;13.45;;;9.98;;
29210;SDS011;16250;49.932;10.980;2023-09-12T09:23:06;14.57;;;9.77;;
29210;SDS011;16250;49.932;10.980;2023-09-12T09:25:36;13.13;;;9.73;;
29210;SDS011;16250;49.932;10.980;2023-09-12T09:28:05;13.18;;;9.38;;
29210;SDS011;16250;49.932;10.980;2023-09-12T09:30:43;14.50;;;10.30;;
29210;SDS011;16250;49.932;10.980;2023-09-12T09:33:10;11.98;;;9.25;;
29210;SDS011;16250;49.932;10.980;2023-09-12T09:35:36;14.63;;;9.68;;
29210;SDS011;16250;49.932;10.980;2023-09-12T09:38:06;13.93;;;9.93;;
29210;SDS011;16250;49.932;10.980;2023-09-12T09:40:32;13.48;;;10.57;;
29210;SDS011;16250;49.932;10.980;2023-09-12T09:43:01;18.30;;;10.80;;
29210;SDS011;16250;49.932;10.980;2023-09-12T09:45:28;15.43;;;10.77;;
29210;SDS011;16250;49.932;10.980;2023-09-12T09:47:58;13.23;;;11.02;;
29210;SDS011;16250;49.932;10.980;2023-09-12T09:50:24;15.90;;;9.90;;
29210;SDS011;16250;49.932;10.980;2023-09-12T09:52:54;12.23;;;10.23;;
29210;SDS011;16250;49.932;10.980;2023-09-12T09:55:20;16.33;;;10.02;;
29210;SDS011;16250;49.932;10.980;2023-09-12T09:57:46;11.93;;;10.07;;
29210;SDS011;16250;49.932;10.980;2023-09-12T10:00:13;18.88;;;10.55;;
29210;SDS011;16250;49.932;10.980;2023-09-12T10:02:40;17.20;;;10.48;;
29210;SDS011;16250;49.932;10.980;2023-09-12T10:05:06;14.90;;;10.38;;
29210;SDS011;16250;49.932;10.980;2023-09-12T10:07:34;15.32;;;9.93;;
29210;SDS011;16250;49.932;10.980;2023-09-12T10:10:02;15.73;;;10.35;;
29210;SDS011;16250;49.932;10.980;2023-09-12T10:12:30;16.50;;;10.50;;
29210;SDS011;16250;49.932;10.980;2023-09-12T10:14:57;12.70;;;9.88;;
29210;SDS011;16250;49.932;10.980;2023-09-12T10:17:24;15.05;;;10.40;;
29210;SDS011;16250;49.932;10.980;2023-09-12T10:19:54;13.00;;;10.43;;
29210;SDS011;16250;49.932;10.980;2023-09-12T10:22:21;15.10;;;10.38;;
29210;SDS011;16250;49.932;10.980;2023-09-12T10:24:49;12.75;;;10.77;;
29210;SDS011;16250;49.932;10.980;2023-09-12T10:27:15;11.90;;;10.48;;
29210;SDS011;16250;49.932;10.980;2023-09-12T10:29:43;12.75;;;10.35;;
29210;SDS011;16250;49.932;10.980;2023-09-12T10:32:12;13.15;;;10.15;;
29210;SDS011;16250;49.932;10.980;2023-09-12T10:34:38;12.27;;;10.25;;
29210;SDS011;16250;49.932;10.980;2023-09-12T10:37:05;14.98;;;10.50;;
29210;SDS011;16250;49.932;10.980;2023-09-12T10:39:32;11.48;;;10.13;;
29210;SDS011;16250;49.932;10.980;2023-09-12T10:41:58;10.48;;;9.38;;
29210;SDS011;16250;49.932;10.980;2023-09-12T10:44:24;14.43;;;10.02;;
29210;SDS011;16250;49.932;10.980;2023-09-12T10:46:50;13.70;;;9.95;;
29210;SDS011;16250;49.932;10.980;2023-09-12T10:49:18;12.50;;;10.00;;
29210;SDS011;16250;49.932;10.980;2023-09-12T10:51:44;13.85;;;9.98;;
29210;SDS011;16250;49.932;10.980;2023-09-12T10:54:14;14.10;;;10.00;;
29210;SDS011;16250;49.932;10.980;2023-09-12T10:56:40;10.93;;;9.77;;
29210;SDS011;16250;49.932;10.980;2023-09-12T11:01:35;14.20;;;10.10;;
29210;SDS011;16250;49.932;10.980;2023-09-12T11:06:44;14.32;;;10.73;;
29210;SDS011;16250;49.932;10.980;2023-09-12T11:11:43;12.88;;;9.65;;
29210;SDS011;16250;49.932;10.980;2023-09-12T11:14:11;14.05;;;10.27;;
29210;SDS011;16250;49.932;10.980;2023-09-12T11:16:37;15.65;;;9.77;;
29210;SDS011;16250;49.932;10.980;2023-09-12T11:19:12;16.05;;;10.45;;
29210;SDS011;16250;49.932;10.980;2023-09-12T11:21:48;16.02;;;10.80;;
29210;SDS011;16250;49.932;10.980;2023-09-12T11:24:15;12.77;;;9.82;;
29210;SDS011;16250;49.932;10.980;2023-09-12T11:26:52;13.43;;;9.68;;
29210;SDS011;16250;49.932;10.980;2023-09-12T11:29:26;11.73;;;10.00;;
29210;SDS011;16250;49.932;10.980;2023-09-12T11:32:01;13.02;;;9.98;;
29210;SDS011;16250;49.932;10.980;2023-09-12T11:34:28;13.35;;;9.63;;
29210;SDS011;16250;49.932;10.980;2023-09-12T11:36:55;14.98;;;10.23;;
29210;SDS011;16250;49.932;10.980;2023-09-12T11:39:23;14.48;;;9.73;;
29210;SDS011;16250;49.932;10.980;2023-09-12T11:41:52;15.55;;;9.32;;
29210;SDS011;16250;49.932;10.980;2023-09-12T11:44:18;17.70;;;10.48;;
29210;SDS011;16250;49.932;10.980;2023-09-12T11:46:47;18.50;;;9.63;;
29210;SDS011;16250;49.932;10.980;2023-09-12T11:49:13;12.70;;;9.00;;
29210;SDS011;16250;49.932;10.980;2023-09-12T11:51:49;15.68;;;8.73;;
29210;SDS011;16250;49.932;10.980;2023-09-12T11:54:18;11.07;;;8.35;;
29210;SDS011;16250;49.932;10.980;2023-09-12T11:56:48;11.77;;;9.30;;
29210;SDS011;16250;49.932;10.980;2023-09-12T11:59:14;15.30;;;8.00;;
29210;SDS011;16250;49.932;10.980;2023-09-12T12:01:41;11.52;;;8.10;;
29210;SDS011;16250;49.932;10.980;2023-09-12T12:04:06;9.77;;;7.63;;
29210;SDS011;16250;49.932;10.980;2023-09-12T12:06:32;11.73;;;7.40;;
29210;SDS011;16250;49.932;10.980;2023-09-12T12:08:59;10.10;;;8.07;;
29210;SDS011;16250;49.932;10.980;2023-09-12T12:11:27;12.20;;;8.00;;
29210;SDS011;16250;49.932;10.980;2023-09-12T12:13:53;10.27;;;8.05;;
29210;SDS011;16250;49.932;10.980;2023-09-12T12:16:18;20.00;;;8.23;;
29210;SDS011;16250;49.932;10.980;2023-09-12T12:18:44;12.27;;;7.40;;
29210;SDS011;16250;49.932;10.980;2023-09-12T12:21:09;14.07;;;7.95;;
29210;SDS011;16250;49.932;10.980;2023-09-12T12:23:35;14.32;;;7.55;;
29210;SDS011;16250;49.932;10.980;2023-09-12T12:26:09;12.52;;;7.80;;
29210;SDS011;16250;49.932;10.980;2023-09-12T12:28:35;11.27;;;7.43;;
29210;SDS011;16250;49.932;10.980;2023-09-12T12:31:01;12.25;;;7.30;;
29210;SDS011;16250;49.932;10.980;2023-09-12T12:33:26;13.18;;;7.30;;
29210;SDS011;16250;49.932;10.980;2023-09-12T12:36:02;13.60;;;7.07;;
29210;SDS011;16250;49.932;10.980;2023-09-12T12:38:31;11.45;;;7.22;;
29210;SDS011;16250;49.932;10.980;2023-09-12T12:41:00;9.90;;;6.70;;
29210;SDS011;16250;49.932;10.980;2023-09-12T12:43:25;16.42;;;6.82;;
29210;SDS011;16250;49.932;10.980;2023-09-12T12:45:56;13.32;;;7.13;;
29210;SDS011;16250;49.932;10.980;2023-09-12T12:48:29;13.45;;;7.07;;
29210;SDS011;16250;49.932;10.980;2023-09-12T12:50:56;13.65;;;6.70;;
29210;SDS011;16250;49.932;10.980;2023-09-12T12:53:37;13.27;;;7.03;;
29210;SDS011;16250;49.932;10.980;2023-09-12T12:56:06;9.77;;;7.30;;
29210;SDS011;16250;49.932;10.980;2023-09-12T12:58:31;9.80;;;6.82;;
29210;SDS011;16250;49.932;10.980;2023-09-12T13:00:57;11.82;;;6.88;;
29210;SDS011;16250;49.932;10.980;2023-09-12T13:03:22;10.23;;;7.15;;
29210;SDS011;16250;49.932;10.980;2023-09-12T13:05:47;11.25;;;6.72;;
29210;SDS011;16250;49.932;10.980;2023-09-12T13:08:13;9.98;;;6.60;;
29210;SDS011;16250;49.932;10.980;2023-09-12T13:10:38;8.48;;;6.85;;
29210;SDS011;16250;49.932;10.980;2023-09-12T13:13:04;12.52;;;6.97;;
29210;SDS011;16250;49.932;10.980;2023-09-12T13:15:29;9.65;;;6.90;;
29210;SDS011;16250;49.932;10.980;2023-09-12T13:17:55;12.57;;;7.10;;
29210;SDS011;16250;49.932;10.980;2023-09-12T13:20:21;10.35;;;7.25;;
29210;SDS011;16250;49.932;10.980;2023-09-12T13:22:47;10.18;;;7.07;;
29210;SDS011;16250;49.932;10.980;2023-09-12T13:25:12;12.25;;;7.00;;
29210;SDS011;16250;49.932;10.980;2023-09-12T13:27:38;11.57;;;7.63;;
29210;SDS011;16250;49.932;10.980;2023-09-12T13:30:03;13.68;;;7.78;;
29210;SDS011;16250;49.932;10.980;2023-09-12T13:32:30;11.32;;;6.95;;
29210;SDS011;16250;49.932;10.980;2023-09-12T13:34:55;12.27;;;7.13;;
29210;SDS011;16250;49.932;10.980;2023-09-12T13:37:22;11.75;;;6.97;;
29210;SDS011;16250;49.932;10.980;2023-09-12T13:39:48;11.23;;;7.30;;
29210;SDS011;16250;49.932;10.980;2023-09-12T13:42:16;12.60;;;7.40;;
29210;SDS011;16250;49.932;10.980;2023-09-12T13:44:48;12.90;;;6.63;;
29210;SDS011;16250;49.932;10.980;2023-09-12T13:47:14;10.63;;;6.93;;
29210;SDS011;16250;49.932;10.980;2023-09-12T13:49:48;11.85;;;6.80;;
29210;SDS011;16250;49.932;10.980;2023-09-12T13:52:19;9.85;;;6.97;;
29210;SDS011;16250;49.932;10.980;2023-09-12T13:54:45;11.60;;;7.13;;
29210;SDS011;16250;49.932;10.980;2023-09-12T13:57:11;12.50;;;6.82;;
29210;SDS011;16250;49.932;10.980;2023-09-12T13:59:38;10.65;;;7.05;;
29210;SDS011;16250;49.932;10.980;2023-09-12T14:02:04;13.77;;;7.88;;
29210;SDS011;16250;49.932;10.980;2023-09-12T14:04:30;14.60;;;7.88;;
29210;SDS011;16250;49.932;10.980;2023-09-12T14:06:55;11.18;;;7.30;;
29210;SDS011;16250;49.932;10.980;2023-09-12T14:09:20;12.48;;;7.40;;
29210;SDS011;16250;49.932;10.980;2023-09-12T14:11:46;12.85;;;7.47;;
29210;SDS011;16250;49.932;10.980;2023-09-12T14:14:12;9.98;;;7.07;;
29210;SDS011;16250;49.932;10.980;2023-09-12T14:16:38;12.27;;;7.57;;
29210;SDS011;16250;49.932;10.980;2023-09-12T14:19:03;11.30;;;6.80;;
29210;SDS011;16250;49.932;10.980;2023-09-12T14:21:28;8.93;;;6.82;;
29210;SDS011;16250;49.932;10.980;2023-09-12T14:23:54;11.23;;;6.78;;
29210;SDS011;16250;49.932;10.980;2023-09-12T14:26:19;11.70;;;7.25;;